Time;durP1;ratioP1;P1;durP2;ratioP2;P2;SDS_P1;SDS_P2;PMS_P1;PMS_P2;Temp;Humidity;BMP_temperature;BMP_pressure;BME280_temperature;BME280_humidity;BME280_pressure;Samples;Min_cycle;Max_cycle;Signal;HPM_P1;HPM_P2
2022/01/12 00:01:10;;;;;;;10.57;6.03;;;;;10.80;103346.00;;;;5020430;28;20209;-80
2022/01/12 00:03:38;;;;;;;12.90;6.78;;;;;10.80;103350.00;;;;5018911;28;20275;-80
2022/01/12 00:06:06;;;;;;;12.40;6.93;;;;;10.80;103359.00;;;;5022403;28;20196;-80
2022/01/12 00:08:34;;;;;;;9.40;6.43;;;;;10.80;103361.00;;;;5027816;28;20193;-79
2022/01/12 00:11:02;;;;;;;10.23;6.95;;;;;10.80;103366.00;;;;5023243;28;20239;-80
2022/01/12 00:13:30;;;;;;;11.82;6.60;;;;;10.80;103367.00;;;;5017264;28;20267;-80
2022/01/12 00:16:01;;;;;;;12.25;6.85;;;;;10.80;103367.00;;;;5014813;28;20200;-80
2022/01/12 00:18:29;;;;;;;10.07;7.05;;;;;10.80;103361.00;;;;5022945;28;20219;-79
2022/01/12 00:20:56;;;;;;;9.65;6.80;;;;;10.80;103370.00;;;;5024659;28;20200;-80
2022/01/12 00:23:23;;;;;;;11.15;6.93;;;;;10.80;103372.00;;;;5020120;28;20193;-80
2022/01/12 00:25:58;;;;;;;11.52;7.45;;;;;10.80;103371.00;;;;5024440;28;20207;-80
2022/01/12 00:34:00;;;;;;;9.10;5.93;;;;;10.80;103371.00;;;;5020100;28;20227;-80
2022/01/12 00:36:27;;;;;;;12.48;6.50;;;;;10.80;103369.00;;;;5016621;28;20670;-79
2022/01/12 00:38:54;;;;;;;10.98;6.30;;;;;10.80;103357.00;;;;5019688;28;20244;-80
2022/01/12 00:41:22;;;;;;;12.23;7.25;;;;;10.80;103352.00;;;;5017513;28;20196;-80
2022/01/12 00:43:56;;;;;;;9.63;6.05;;;;;10.80;103344.00;;;;5024803;28;20199;-79
2022/01/12 00:46:26;;;;;;;9.15;6.38;;;;;10.80;103348.00;;;;5009417;28;20282;-80
2022/01/12 00:48:54;;;;;;;9.43;6.72;;;;;10.80;103339.00;;;;5009000;28;20667;-80
2022/01/12 00:51:22;;;;;;;10.18;6.68;;;;;10.80;103342.00;;;;5014282;28;20220;-80
2022/01/12 00:53:49;;;;;;;9.88;6.72;;;;;10.80;103356.00;;;;5013004;28;20231;-81
2022/01/12 00:56:16;;;;;;;12.95;7.15;;;;;10.80;103352.00;;;;5010729;28;20218;-80
2022/01/12 00:58:44;;;;;;;11.73;7.65;;;;;10.80;103349.00;;;;5009648;28;20197;-80
2022/01/12 01:01:11;;;;;;;13.50;7.38;;;;;10.80;103359.00;;;;5008864;28;20196;-80
2022/01/12 01:03:40;;;;;;;10.60;7.18;;;;;10.80;103359.00;;;;5016274;28;20203;-80
2022/01/12 01:06:09;;;;;;;12.70;6.60;;;;;10.90;103373.00;;;;5008510;28;20378;-80
2022/01/12 01:08:36;;;;;;;11.60;7.40;;;;;10.90;103365.00;;;;5014817;28;20715;-81
2022/01/12 01:11:05;;;;;;;10.50;7.00;;;;;10.90;103357.00;;;;5016013;28;20200;-80
2022/01/12 01:13:41;;;;;;;12.32;6.25;;;;;10.90;103363.00;;;;5019318;28;20224;-80
2022/01/12 01:16:16;;;;;;;9.65;6.45;;;;;10.90;103373.00;;;;5012979;28;20243;-79
2022/01/12 01:27:01;;;;;;;9.02;5.88;;;;;10.80;103372.00;;;;5026442;28;20207;-81
2022/01/12 01:29:28;;;;;;;11.95;7.03;;;;;10.80;103352.00;;;;5030221;28;20211;-80
2022/01/12 01:31:56;;;;;;;9.65;6.82;;;;;10.80;103344.00;;;;5013885;28;20201;-80
2022/01/12 01:34:26;;;;;;;11.60;7.63;;;;;10.80;103349.00;;;;5018868;28;20312;-80
2022/01/12 01:36:55;;;;;;;13.25;7.13;;;;;10.80;103349.00;;;;5012368;28;20193;-80
2022/01/12 01:39:25;;;;;;;11.02;6.82;;;;;10.80;103352.00;;;;5023705;28;20199;-80
2022/01/12 01:41:56;;;;;;;11.93;7.57;;;;;10.80;103356.00;;;;5017837;28;20193;-80
2022/01/12 01:55:29;;;;;;;8.75;6.20;;;;;10.80;103359.00;;;;5014117;28;20686;-79
2022/01/12 01:57:56;;;;;;;11.43;6.95;;;;;10.80;103365.00;;;;5022813;28;20189;-80
2022/01/12 02:00:26;;;;;;;12.45;7.40;;;;;10.80;103375.00;;;;5028878;28;20205;-80
2022/01/12 02:02:57;;;;;;;11.55;7.95;;;;;10.80;103382.00;;;;5026816;28;20189;-80
2022/01/12 02:05:26;;;;;;;9.65;6.75;;;;;10.80;103387.00;;;;5014329;28;20224;-80
2022/01/12 02:07:54;;;;;;;13.05;8.07;;;;;10.80;103388.00;;;;5026889;28;20200;-80
2022/01/12 02:10:21;;;;;;;11.30;7.70;;;;;10.80;103396.00;;;;5023414;28;20220;-80
2022/01/12 02:12:49;;;;;;;8.73;6.25;;;;;10.80;103399.00;;;;5029379;28;20681;-80
2022/01/12 02:15:19;;;;;;;10.50;6.72;;;;;10.80;103408.00;;;;5012123;28;20231;-80
2022/01/12 02:18:02;;;;;;;11.38;7.35;;;;;10.80;103399.00;;;;5015909;28;20318;-80
2022/01/12 02:39:42;;;;;;;10.15;7.35;;;;;10.80;103465.00;;;;5019438;28;20219;-80
2022/01/12 02:40:05;;;;;;;10.20;6.93;;;;;10.80;103475.00;;;;5016395;28;20207;-80
2022/01/12 02:42:32;;;;;;;11.93;7.78;;;;;10.80;103478.00;;;;5028456;28;20222;-81
2022/01/12 02:50:43;;;;;;;11.45;7.28;;;;;10.80;103499.00;;;;5014990;28;20212;-81
2022/01/12 02:55:57;;;;;;;10.82;6.22;;;;;10.80;103487.00;;;;5017245;28;20203;-80
2022/01/12 02:58:24;;;;;;;12.05;7.43;;;;;10.80;103470.00;;;;5027500;28;20203;-80
2022/01/12 03:03:42;;;;;;;12.55;7.38;;;;;10.80;103466.00;;;;5014948;28;20200;-80
2022/01/12 03:06:14;;;;;;;11.73;7.22;;;;;10.80;103470.00;;;;5030309;28;20809;-80
2022/01/12 03:08:42;;;;;;;11.38;7.38;;;;;10.90;103471.00;;;;5017215;28;20229;-81
2022/01/12 03:11:13;;;;;;;11.05;7.78;;;;;10.80;103465.00;;;;5019148;28;20205;-80
2022/01/12 03:13:41;;;;;;;12.88;7.35;;;;;10.90;103467.00;;;;5028436;28;20219;-80
2022/01/12 03:16:12;;;;;;;14.25;9.20;;;;;10.90;103474.00;;;;5020722;28;20204;-81
2022/01/12 03:18:40;;;;;;;12.32;6.97;;;;;10.90;103480.00;;;;5017745;28;20293;-80
2022/01/12 03:21:07;;;;;;;12.18;7.45;;;;;10.90;103465.00;;;;5011092;28;20235;-80
2022/01/12 03:23:34;;;;;;;11.65;7.50;;;;;10.90;103472.00;;;;5024128;28;20196;-80
2022/01/12 03:26:02;;;;;;;13.15;7.78;;;;;10.90;103465.00;;;;5011795;28;20203;-80
2022/01/12 03:28:31;;;;;;;11.20;7.20;;;;;10.90;103462.00;;;;5012462;28;20216;-80
2022/01/12 03:31:07;;;;;;;12.38;7.78;;;;;10.90;103459.00;;;;5024357;28;20208;-81
2022/01/12 03:33:51;;;;;;;11.82;7.45;;;;;10.90;103471.00;;;;5016406;28;20258;-80
2022/01/12 03:36:41;;;;;;;13.00;8.10;;;;;10.90;103474.00;;;;5013725;28;20287;-81
2022/01/12 03:39:10;;;;;;;13.68;8.05;;;;;10.90;103471.00;;;;5012733;28;20287;-81
2022/01/12 03:41:38;;;;;;;11.82;7.03;;;;;10.90;103467.00;;;;5019785;28;20197;-81
2022/01/12 03:44:08;;;;;;;12.38;7.90;;;;;10.90;103466.00;;;;5011890;28;20220;-81
2022/01/12 03:46:38;;;;;;;14.23;8.05;;;;;10.90;103463.00;;;;5020345;28;20196;-81
2022/01/12 03:49:06;;;;;;;12.25;7.95;;;;;11.00;103463.00;;;;5011902;28;20205;-81
2022/01/12 03:51:33;;;;;;;11.57;7.72;;;;;11.00;103469.00;;;;5016955;28;20196;-80
2022/01/12 03:54:00;;;;;;;11.63;7.93;;;;;11.00;103474.00;;;;5021148;28;20216;-80
2022/01/12 03:56:28;;;;;;;12.43;8.07;;;;;11.00;103484.00;;;;5010771;28;20562;-81
2022/01/12 03:58:56;;;;;;;14.55;8.18;;;;;11.00;103488.00;;;;5013129;28;20197;-80
2022/01/12 04:01:24;;;;;;;13.52;8.10;;;;;11.00;103490.00;;;;5022737;28;20196;-81
2022/01/12 04:04:00;;;;;;;11.43;7.28;;;;;11.10;103491.00;;;;5021197;28;20199;-80
2022/01/12 04:09:13;;;;;;;13.70;7.60;;;;;11.00;103489.00;;;;5017185;28;20219;-81
2022/01/12 04:11:40;;;;;;;10.43;7.18;;;;;11.10;103496.00;;;;5009678;28;20200;-80
2022/01/12 04:14:08;;;;;;;13.07;8.15;;;;;11.10;103498.00;;;;5021607;28;20266;-81
2022/01/12 04:16:38;;;;;;;14.13;8.15;;;;;11.00;103494.00;;;;5015952;28;20244;-79
2022/01/12 04:19:05;;;;;;;13.57;9.07;;;;;11.10;103504.00;;;;5014320;28;20232;-79
2022/01/12 04:21:40;;;;;;;14.85;8.23;;;;;11.10;103503.00;;;;5026321;28;20203;-80
2022/01/12 04:24:08;;;;;;;12.20;7.95;;;;;11.10;103502.00;;;;5012728;28;20246;-80
2022/01/12 04:26:36;;;;;;;12.98;8.25;;;;;11.10;103493.00;;;;5012756;28;20197;-80
2022/01/12 04:29:03;;;;;;;10.70;7.03;;;;;11.10;103495.00;;;;5021219;28;20577;-81
2022/01/12 04:31:31;;;;;;;12.50;7.90;;;;;11.10;103490.00;;;;5010642;28;20197;-80
2022/01/12 04:34:00;;;;;;;11.55;7.07;;;;;11.10;103482.00;;;;5020184;28;20251;-80
2022/01/12 04:36:27;;;;;;;12.07;7.38;;;;;11.10;103474.00;;;;5019366;28;20200;-80
2022/01/12 04:38:54;;;;;;;13.98;8.60;;;;;11.10;103474.00;;;;5016379;28;20188;-80
2022/01/12 04:41:24;;;;;;;13.30;8.65;;;;;11.10;103472.00;;;;5026133;28;20204;-80
2022/01/12 04:43:53;;;;;;;15.40;8.13;;;;;11.10;103478.00;;;;5016457;28;20191;-80
2022/01/12 04:46:30;;;;;;;13.73;7.53;;;;;11.10;103484.00;;;;5023008;28;20207;-80
2022/01/12 04:49:27;;;;;;;14.45;8.35;;;;;11.10;103475.00;;;;5010739;28;20725;-80
2022/01/12 04:51:54;;;;;;;12.45;6.82;;;;;11.10;103478.00;;;;5009545;28;20192;-79
2022/01/12 04:54:21;;;;;;;13.98;8.23;;;;;11.10;103491.00;;;;5015721;28;20231;-80
2022/01/12 04:56:49;;;;;;;12.75;7.45;;;;;11.20;103499.00;;;;5009065;28;20193;-80
2022/01/12 04:59:16;;;;;;;13.00;7.75;;;;;11.20;103496.00;;;;5021832;28;20197;-81
2022/01/12 05:01:51;;;;;;;12.05;7.72;;;;;11.20;103489.00;;;;5008633;28;20197;-81
2022/01/12 05:07:29;;;;;;;12.13;7.72;;;;;11.20;103492.00;;;;4973878;28;20571;-81
2022/01/12 05:12:51;;;;;;;12.35;6.90;;;;;11.20;103498.00;;;;5011365;28;20200;-81
2022/01/12 05:15:26;;;;;;;13.10;7.68;;;;;11.20;103488.00;;;;5019376;28;20679;-81
2022/01/12 05:17:53;;;;;;;15.23;7.90;;;;;11.20;103480.00;;;;5020081;28;20192;-81
2022/01/12 05:20:23;;;;;;;15.63;8.05;;;;;11.20;103488.00;;;;5017138;28;20236;-81
2022/01/12 05:22:50;;;;;;;12.15;6.97;;;;;11.20;103489.00;;;;5020015;28;20204;-79
2022/01/12 05:25:18;;;;;;;14.88;7.70;;;;;11.20;103495.00;;;;5008440;28;20262;-80
2022/01/12 05:27:46;;;;;;;11.60;7.53;;;;;11.20;103502.00;;;;5008457;28;20589;-81
2022/01/12 05:30:14;;;;;;;13.45;7.43;;;;;11.20;103501.00;;;;5025463;28;20219;-81
2022/01/12 05:32:42;;;;;;;12.70;8.00;;;;;11.20;103501.00;;;;5008297;28;20189;-81
2022/01/12 05:35:11;;;;;;;11.15;6.82;;;;;11.20;103508.00;;;;5021319;28;20307;-81
2022/01/12 05:37:40;;;;;;;13.60;7.35;;;;;11.20;103517.00;;;;5014004;28;20623;-81
2022/01/12 05:40:09;;;;;;;11.98;8.10;;;;;11.20;103520.00;;;;5013911;28;20244;-81
2022/01/12 05:42:36;;;;;;;13.30;8.63;;;;;11.30;103530.00;;;;5019292;28;20207;-79
2022/01/12 05:45:05;;;;;;;15.60;7.32;;;;;11.30;103534.00;;;;5018103;28;20192;-81
2022/01/12 05:49:34;;;;;;;11.63;7.50;;;;;11.30;103538.00;;;;5018158;28;20196;-80
2022/01/12 05:50:29;;;;;;;12.43;7.38;;;;;11.30;103533.00;;;;5012790;28;20288;-80
2022/01/12 05:52:57;;;;;;;12.00;7.93;;;;;11.30;103528.00;;;;5018945;28;20212;-80
2022/01/12 05:55:25;;;;;;;12.27;7.38;;;;;11.30;103534.00;;;;5013183;28;20223;-79
2022/01/12 05:57:52;;;;;;;12.77;8.10;;;;;11.30;103533.00;;;;5019848;28;21183;-80
2022/01/12 06:00:21;;;;;;;16.00;8.38;;;;;11.30;103542.00;;;;5012096;28;20251;-79
2022/01/12 06:02:49;;;;;;;14.63;8.55;;;;;11.30;103547.00;;;;5021465;28;20192;-79
2022/01/12 06:05:18;;;;;;;14.13;8.10;;;;;11.30;103543.00;;;;5027674;28;20196;-79
2022/01/12 06:07:46;;;;;;;13.82;8.20;;;;;11.30;103546.00;;;;5025527;28;20200;-80
2022/01/12 06:10:15;;;;;;;13.35;8.43;;;;;11.30;103552.00;;;;5026508;28;20238;-80
2022/01/12 06:12:44;;;;;;;13.73;8.57;;;;;11.30;103550.00;;;;5024233;28;20201;-80
2022/01/12 06:15:12;;;;;;;15.07;9.00;;;;;11.30;103545.00;;;;5026666;28;20307;-79
2022/01/12 06:17:39;;;;;;;13.90;8.13;;;;;11.30;103544.00;;;;5023376;28;20749;-80
2022/01/12 06:20:09;;;;;;;15.65;8.15;;;;;11.30;103543.00;;;;5026148;28;20623;-80
2022/01/12 06:22:37;;;;;;;13.23;7.55;;;;;11.30;103548.00;;;;5026262;28;20716;-79
2022/01/12 06:25:09;;;;;;;11.95;7.72;;;;;11.30;103551.00;;;;5026877;28;20584;-80
2022/01/12 06:27:38;;;;;;;15.63;8.15;;;;;11.30;103563.00;;;;5024068;28;20234;-80
2022/01/12 06:31:10;;;;;;;12.82;7.40;;;;;11.30;103559.00;;;;5025267;28;20201;-79
2022/01/12 06:32:53;;;;;;;15.25;7.80;;;;;11.30;103563.00;;;;5027778;28;20234;-80
2022/01/12 06:35:21;;;;;;;14.38;7.40;;;;;11.30;103563.00;;;;5029507;28;20274;-80
2022/01/12 06:37:48;;;;;;;14.25;8.43;;;;;11.30;103568.00;;;;5026731;28;20196;-79
2022/01/12 06:40:17;;;;;;;11.93;7.63;;;;;11.30;103576.00;;;;5029091;28;20200;-78
2022/01/12 06:42:46;;;;;;;12.80;7.55;;;;;11.20;103585.00;;;;5024907;28;20227;-80
2022/01/12 06:45:14;;;;;;;13.18;8.38;;;;;11.30;103587.00;;;;5015212;28;20211;-80
2022/01/12 06:47:43;;;;;;;14.95;7.68;;;;;11.20;103595.00;;;;5030311;28;20197;-80
2022/01/12 06:50:10;;;;;;;12.35;7.82;;;;;11.20;103595.00;;;;5024460;28;20208;-81
2022/01/12 06:52:37;;;;;;;14.68;9.07;;;;;11.20;103604.00;;;;5029913;28;20200;-80
2022/01/12 06:55:06;;;;;;;13.05;7.72;;;;;11.20;103597.00;;;;5029495;28;20250;-82
2022/01/12 06:57:33;;;;;;;11.23;7.28;;;;;11.20;103597.00;;;;5031185;28;20192;-81
2022/01/12 07:00:04;;;;;;;13.57;7.13;;;;;11.20;103606.00;;;;5017614;28;20204;-81
2022/01/12 07:02:31;;;;;;;14.50;7.85;;;;;11.20;103609.00;;;;5031999;28;20193;-79
2022/01/12 07:04:58;;;;;;;14.52;7.97;;;;;11.30;103607.00;;;;5030669;28;20205;-79
2022/01/12 07:07:26;;;;;;;12.65;7.70;;;;;11.30;103609.00;;;;5035083;28;20199;-80
2022/01/12 07:09:53;;;;;;;14.13;7.60;;;;;11.20;103617.00;;;;5050509;28;20235;-79
2022/01/12 07:12:21;;;;;;;11.82;7.60;;;;;11.30;103619.00;;;;5052048;28;20243;-79
2022/01/12 07:14:49;;;;;;;14.30;9.10;;;;;11.30;103625.00;;;;5040386;28;20479;-80
2022/01/12 07:17:18;;;;;;;11.70;7.32;;;;;11.20;103627.00;;;;5048325;28;20199;-80
2022/01/12 07:19:45;;;;;;;12.32;7.50;;;;;11.20;103633.00;;;;5043246;28;20246;-80
2022/01/12 07:22:12;;;;;;;11.02;7.40;;;;;11.30;103637.00;;;;5046664;28;20196;-80
2022/01/12 07:24:40;;;;;;;13.25;8.10;;;;;11.30;103640.00;;;;5047826;28;20192;-79
2022/01/12 07:27:07;;;;;;;11.20;7.22;;;;;11.30;103651.00;;;;5044604;28;20200;-80
2022/01/12 07:29:35;;;;;;;12.45;7.97;;;;;11.30;103666.00;;;;5042003;28;20295;-80
2022/01/12 07:32:02;;;;;;;12.90;7.72;;;;;11.20;103666.00;;;;5044349;28;20195;-80
2022/01/12 07:34:31;;;;;;;13.50;7.15;;;;;11.20;103658.00;;;;5027780;28;20710;-80
2022/01/12 07:36:58;;;;;;;13.95;7.57;;;;;11.30;103669.00;;;;5037508;28;20227;-80
2022/01/12 07:39:25;;;;;;;12.32;8.18;;;;;11.20;103672.00;;;;5030995;28;20197;-81
2022/01/12 07:41:52;;;;;;;12.52;7.45;;;;;11.20;103674.00;;;;5033126;28;20989;-79
2022/01/12 07:44:21;;;;;;;14.10;7.50;;;;;11.20;103669.00;;;;5033949;28;20204;-80
2022/01/12 07:46:48;;;;;;;15.88;7.85;;;;;11.30;103674.00;;;;5045414;28;20591;-80
2022/01/12 07:49:15;;;;;;;11.80;7.18;;;;;11.20;103676.00;;;;5029767;28;20200;-80
2022/01/12 07:51:44;;;;;;;11.75;7.43;;;;;11.20;103666.00;;;;5035502;28;20200;-80
2022/01/12 07:54:11;;;;;;;10.48;6.90;;;;;11.30;103677.00;;;;5040960;28;20196;-80
2022/01/12 07:56:39;;;;;;;12.45;7.05;;;;;11.30;103679.00;;;;5026386;28;20227;-80
2022/01/12 07:59:06;;;;;;;13.80;6.78;;;;;11.30;103673.00;;;;5025041;28;20792;-80
2022/01/12 08:01:34;;;;;;;13.52;6.97;;;;;11.30;103685.00;;;;5015232;28;20197;-81
2022/01/12 08:04:01;;;;;;;12.82;7.55;;;;;11.30;103686.00;;;;5019191;28;20405;-80
2022/01/12 08:06:28;;;;;;;13.65;6.40;;;;;11.30;103679.00;;;;5017921;28;20197;-79
2022/01/12 08:08:58;;;;;;;12.73;7.18;;;;;11.30;103676.00;;;;5021881;28;20217;-78
2022/01/12 08:11:25;;;;;;;10.93;7.15;;;;;11.40;103675.00;;;;5019536;28;20562;-78
2022/01/12 08:13:52;;;;;;;13.40;6.90;;;;;11.40;103679.00;;;;5016417;28;20205;-78
2022/01/12 08:16:20;;;;;;;13.60;7.80;;;;;11.40;103670.00;;;;5020144;28;20683;-76
2022/01/12 08:18:47;;;;;;;15.38;7.80;;;;;11.40;103681.00;;;;5008264;28;20228;-78
2022/01/12 08:21:14;;;;;;;14.27;6.70;;;;;11.50;103685.00;;;;5019736;28;20208;-80
2022/01/12 08:23:42;;;;;;;16.10;6.10;;;;;11.50;103684.00;;;;5008975;28;20197;-78
2022/01/12 08:26:10;;;;;;;11.43;6.28;;;;;11.50;103689.00;;;;5014130;28;20204;-78
2022/01/12 08:28:37;;;;;;;12.50;7.05;;;;;11.50;103693.00;;;;5017328;28;20192;-78
2022/01/12 08:31:05;;;;;;;13.07;6.65;;;;;11.50;103698.00;;;;5009671;28;20227;-79
2022/01/12 08:33:33;;;;;;;11.70;6.43;;;;;11.50;103705.00;;;;5008439;28;20689;-78
2022/01/12 08:36:00;;;;;;;13.27;5.72;;;;;11.50;103705.00;;;;5021596;28;20236;-78
2022/01/12 08:38:27;;;;;;;10.82;5.30;;;;;11.60;103724.00;;;;5013971;28;20200;-78
2022/01/12 08:40:55;;;;;;;13.65;6.65;;;;;11.60;103733.00;;;;5026039;28;20203;-78
2022/01/12 08:43:24;;;;;;;13.45;5.97;;;;;11.60;103731.00;;;;5016281;28;20204;-78
2022/01/12 08:45:53;;;;;;;10.77;4.93;;;;;11.60;103739.00;;;;5021657;28;20196;-78
2022/01/12 08:48:21;;;;;;;10.93;5.53;;;;;11.60;103739.00;;;;5015626;28;20208;-79
2022/01/12 08:50:49;;;;;;;9.73;5.43;;;;;11.60;103725.00;;;;5017093;28;20200;-79
2022/01/12 08:53:16;;;;;;;8.70;4.85;;;;;11.60;103739.00;;;;5014042;28;20476;-78
2022/01/12 08:55:43;;;;;;;11.07;5.10;;;;;11.60;103754.00;;;;5011721;28;20225;-79
2022/01/12 08:58:11;;;;;;;8.93;5.18;;;;;11.60;103748.00;;;;5019348;28;20208;-78
2022/01/12 09:00:40;;;;;;;10.35;5.82;;;;;11.60;103761.00;;;;5015977;28;20209;-78
2022/01/12 09:03:08;;;;;;;9.52;4.53;;;;;11.70;103765.00;;;;5006845;28;20208;-79
2022/01/12 09:05:35;;;;;;;9.95;4.13;;;;;11.70;103774.00;;;;5014653;28;20208;-78
2022/01/12 09:08:03;;;;;;;13.25;5.35;;;;;11.70;103779.00;;;;5021557;28;20339;-79
2022/01/12 09:10:30;;;;;;;8.45;4.63;;;;;11.70;103786.00;;;;5023299;28;20239;-79
2022/01/12 09:12:58;;;;;;;13.65;5.43;;;;;11.80;103775.00;;;;5019909;28;20188;-79
2022/01/12 09:15:26;;;;;;;12.27;5.47;;;;;11.80;103778.00;;;;5019659;28;20221;-79
2022/01/12 09:17:56;;;;;;;11.15;5.85;;;;;11.80;103777.00;;;;5016420;28;20205;-78
2022/01/12 09:20:24;;;;;;;9.90;4.93;;;;;11.80;103776.00;;;;5018081;28;20232;-78
2022/01/12 09:22:53;;;;;;;10.68;4.38;;;;;11.80;103776.00;;;;5013829;28;20208;-78
2022/01/12 09:25:20;;;;;;;13.82;5.55;;;;;11.80;103773.00;;;;5007829;28;20229;-79
2022/01/12 09:27:47;;;;;;;10.60;4.88;;;;;11.90;103784.00;;;;5009420;28;20197;-79
2022/01/12 09:30:16;;;;;;;8.00;3.75;;;;;11.90;103789.00;;;;5016636;28;20196;-78
2022/01/12 09:32:44;;;;;;;9.60;4.32;;;;;11.90;103796.00;;;;5009720;28;20739;-79
2022/01/12 09:35:13;;;;;;;11.00;5.15;;;;;11.90;103798.00;;;;5014126;28;20205;-78
2022/01/12 09:37:40;;;;;;;10.70;4.72;;;;;12.00;103798.00;;;;5007053;28;20291;-76
2022/01/12 09:40:09;;;;;;;10.32;5.18;;;;;12.00;103804.00;;;;5012911;28;20205;-76
2022/01/12 09:42:37;;;;;;;9.77;4.22;;;;;12.00;103811.00;;;;5012766;28;20204;-76
2022/01/12 09:45:06;;;;;;;9.80;4.75;;;;;12.00;103815.00;;;;5016843;28;20211;-77
2022/01/12 09:47:34;;;;;;;10.00;5.22;;;;;12.10;103819.00;;;;5014375;28;20404;-76
2022/01/12 09:50:03;;;;;;;10.23;5.05;;;;;12.10;103827.00;;;;5014231;28;20224;-77
2022/01/12 09:52:31;;;;;;;9.73;4.47;;;;;12.10;103820.00;;;;5019927;28;20212;-77
2022/01/12 09:54:59;;;;;;;9.95;4.75;;;;;12.10;103828.00;;;;5019611;28;20200;-77
2022/01/12 09:57:26;;;;;;;11.68;3.90;;;;;12.20;103834.00;;;;5018927;28;20232;-76
2022/01/12 09:59:53;;;;;;;11.05;3.78;;;;;12.20;103841.00;;;;5014416;28;20209;-76
2022/01/12 10:02:22;;;;;;;10.43;4.60;;;;;12.20;103833.00;;;;5014925;28;20205;-76
2022/01/12 10:04:59;;;;;;;7.78;3.92;;;;;12.20;103833.00;;;;5018021;28;20250;-76
2022/01/12 10:07:27;;;;;;;8.82;4.43;;;;;12.20;103829.00;;;;5018188;28;20212;-76
2022/01/12 10:10:00;;;;;;;8.68;3.90;;;;;12.20;103825.00;;;;5018712;28;20216;-77
2022/01/12 10:12:28;;;;;;;7.50;3.08;;;;;12.20;103818.00;;;;5018351;28;20220;-77
2022/01/12 10:14:58;;;;;;;7.53;3.20;;;;;12.20;103811.00;;;;5016413;28;20193;-77
2022/01/12 10:17:33;;;;;;;5.18;2.65;;;;;12.20;103818.00;;;;5017792;28;20220;-77
2022/01/12 10:20:07;;;;;;;7.28;2.83;;;;;12.20;103821.00;;;;5019021;28;20238;-77
2022/01/12 10:22:35;;;;;;;17.80;7.53;;;;;12.20;103810.00;;;;5015737;28;20927;-77
2022/01/12 10:25:15;;;;;;;12.18;5.07;;;;;12.30;103817.00;;;;5011449;28;20193;-77
2022/01/12 10:27:43;;;;;;;6.68;3.33;;;;;12.40;103811.00;;;;5023840;28;20214;-77
2022/01/12 10:30:21;;;;;;;11.35;3.70;;;;;12.30;103810.00;;;;5021108;28;20197;-76
2022/01/12 10:32:59;;;;;;;7.38;3.60;;;;;12.40;103811.00;;;;5011496;28;20197;-78
2022/01/12 10:35:27;;;;;;;6.22;2.85;;;;;12.40;103810.00;;;;5022651;28;20203;-77
2022/01/12 10:38:04;;;;;;;8.10;3.67;;;;;12.40;103816.00;;;;5013728;28;20279;-78
2022/01/12 10:40:48;;;;;;;9.20;3.83;;;;;12.40;103820.00;;;;5012574;28;20201;-77
2022/01/12 10:43:34;;;;;;;7.82;3.20;;;;;12.40;103815.00;;;;5010168;28;20663;-77
2022/01/12 10:46:03;;;;;;;9.50;3.40;;;;;12.50;103820.00;;;;5012423;28;20211;-77
2022/01/12 10:48:45;;;;;;;9.27;3.15;;;;;12.50;103822.00;;;;5024114;28;20663;-77
2022/01/12 10:51:14;;;;;;;9.48;4.18;;;;;12.60;103822.00;;;;5010863;28;20192;-77
2022/01/12 10:53:42;;;;;;;9.57;4.05;;;;;12.70;103825.00;;;;5012854;28;20197;-77
2022/01/12 10:56:15;;;;;;;9.10;3.85;;;;;12.70;103823.00;;;;5011220;28;20264;-80
2022/01/12 10:58:48;;;;;;;11.95;4.13;;;;;12.70;103815.00;;;;5025680;28;20237;-77
2022/01/12 11:01:17;;;;;;;7.70;3.40;;;;;12.70;103821.00;;;;5013802;28;20577;-77
2022/01/12 11:03:46;;;;;;;8.13;4.15;;;;;12.70;103826.00;;;;5017448;28;20213;-77
2022/01/12 11:06:13;;;;;;;6.57;3.78;;;;;12.70;103828.00;;;;5014064;28;20291;-78
2022/01/12 11:08:42;;;;;;;7.65;3.70;;;;;12.70;103828.00;;;;5012244;28;20231;-77
2022/01/12 11:11:10;;;;;;;8.23;4.18;;;;;12.70;103823.00;;;;5013704;28;20221;-77
2022/01/12 11:13:38;;;;;;;8.93;3.92;;;;;12.80;103822.00;;;;5010678;28;20200;-77
2022/01/12 11:16:06;;;;;;;10.07;4.13;;;;;12.80;103829.00;;;;5021950;28;20231;-78
2022/01/12 11:18:35;;;;;;;19.55;8.48;;;;;12.70;103815.00;;;;5011581;28;20463;-78
2022/01/12 11:21:09;;;;;;;13.70;5.43;;;;;12.90;103823.00;;;;5011780;28;20200;-79
2022/01/12 11:23:38;;;;;;;10.45;5.05;;;;;12.90;103808.00;;;;5016728;28;20224;-79
2022/01/12 11:26:16;;;;;;;11.43;4.30;;;;;12.80;103814.00;;;;5022010;28;20571;-79
2022/01/12 11:28:44;;;;;;;6.93;3.92;;;;;12.80;103817.00;;;;5011614;28;20243;-79
2022/01/12 11:31:12;;;;;;;12.77;4.65;;;;;12.80;103810.00;;;;5019673;28;20657;-77
2022/01/12 11:33:42;;;;;;;9.50;4.78;;;;;12.80;103806.00;;;;5027833;28;20215;-77
2022/01/12 11:36:19;;;;;;;12.52;5.00;;;;;12.80;103815.00;;;;5017588;28;20785;-77
2022/01/12 11:38:50;;;;;;;10.55;4.55;;;;;12.90;103810.00;;;;5010692;28;20223;-77
2022/01/12 11:41:23;;;;;;;11.18;4.82;;;;;12.90;103817.00;;;;5016288;28;20196;-78
2022/01/12 11:43:55;;;;;;;8.50;3.97;;;;;12.90;103818.00;;;;5017449;28;20682;-78
2022/01/12 11:46:24;;;;;;;8.75;3.58;;;;;12.90;103810.00;;;;5018812;28;20690;-78
2022/01/12 11:48:53;;;;;;;8.68;4.53;;;;;13.00;103801.00;;;;5009612;28;20197;-77
2022/01/12 11:51:33;;;;;;;8.07;4.03;;;;;13.00;103809.00;;;;5009517;28;20204;-78
2022/01/12 11:54:07;;;;;;;9.20;4.30;;;;;13.10;103809.00;;;;5013792;28;20203;-78
2022/01/12 11:56:36;;;;;;;8.30;4.13;;;;;13.10;103798.00;;;;5019813;28;20643;-78
2022/01/12 11:59:09;;;;;;;8.00;4.10;;;;;13.10;103797.00;;;;5023972;28;20193;-78
2022/01/12 12:01:43;;;;;;;8.27;3.90;;;;;13.10;103801.00;;;;5013804;28;20196;-78
2022/01/12 12:04:21;;;;;;;10.27;4.95;;;;;13.20;103805.00;;;;5009507;28;20234;-79
2022/01/12 12:06:49;;;;;;;7.85;4.10;;;;;13.30;103801.00;;;;5015904;28;20547;-77
2022/01/12 12:09:18;;;;;;;12.25;5.15;;;;;13.30;103799.00;;;;5009592;28;20707;-77
2022/01/12 12:11:51;;;;;;;12.40;5.53;;;;;13.40;103790.00;;;;5008635;28;20773;-76
2022/01/12 12:14:19;;;;;;;9.55;4.80;;;;;13.40;103789.00;;;;5011796;28;20279;-76
2022/01/12 12:16:47;;;;;;;9.95;4.28;;;;;13.40;103794.00;;;;5013841;28;20224;-76
2022/01/12 12:19:14;;;;;;;10.07;4.28;;;;;13.50;103793.00;;;;5013399;28;20228;-76
2022/01/12 12:21:49;;;;;;;10.38;4.25;;;;;13.40;103785.00;;;;5008862;28;20398;-76
2022/01/12 12:24:16;;;;;;;8.18;4.68;;;;;13.50;103787.00;;;;5009264;28;20759;-76
2022/01/12 12:26:48;;;;;;;11.43;5.00;;;;;13.50;103784.00;;;;5008400;28;20315;-76
2022/01/12 12:29:18;;;;;;;10.00;4.63;;;;;13.50;103784.00;;;;5014067;28;20203;-76
2022/01/12 12:31:48;;;;;;;11.88;4.93;;;;;13.50;103786.00;;;;5014640;28;20384;-76
2022/01/12 12:34:16;;;;;;;10.23;5.00;;;;;13.50;103783.00;;;;5013535;28;20268;-76
2022/01/12 12:36:43;;;;;;;9.20;4.10;;;;;13.50;103786.00;;;;5009776;28;20263;-76
2022/01/12 12:39:13;;;;;;;7.88;3.90;;;;;13.50;103784.00;;;;5024115;28;20208;-76
2022/01/12 12:41:42;;;;;;;11.07;4.05;;;;;13.50;103782.00;;;;5016447;28;20675;-77
2022/01/12 12:44:23;;;;;;;7.55;3.92;;;;;13.40;103787.00;;;;5014118;28;20200;-77
2022/01/12 12:46:51;;;;;;;8.65;4.20;;;;;13.50;103792.00;;;;5012507;28;20212;-77
2022/01/12 12:49:19;;;;;;;11.00;4.60;;;;;13.50;103804.00;;;;5020230;28;20216;-78
2022/01/12 12:51:47;;;;;;;8.27;4.38;;;;;13.40;103801.00;;;;5022633;28;20207;-77
2022/01/12 12:54:15;;;;;;;12.18;4.20;;;;;13.40;103791.00;;;;5022863;28;20200;-78
2022/01/12 12:56:49;;;;;;;8.73;4.25;;;;;13.40;103800.00;;;;5023025;28;20255;-77
2022/01/12 12:59:16;;;;;;;11.68;4.90;;;;;13.40;103796.00;;;;5019302;28;20292;-76
2022/01/12 13:01:44;;;;;;;7.88;3.30;;;;;13.40;103802.00;;;;5020848;28;20200;-78
2022/01/12 13:04:13;;;;;;;8.43;4.03;;;;;13.40;103799.00;;;;5021049;28;20200;-78
2022/01/12 13:06:40;;;;;;;12.40;4.25;;;;;13.40;103802.00;;;;5012868;28;20201;-76
2022/01/12 13:09:12;;;;;;;6.82;4.15;;;;;13.30;103802.00;;;;5010870;28;20201;-78
2022/01/12 13:11:41;;;;;;;8.05;4.32;;;;;13.30;103802.00;;;;5015317;28;20493;-78
2022/01/12 13:14:11;;;;;;;6.40;3.58;;;;;13.30;103807.00;;;;5023745;28;20293;-78